createdAt,value
2019-03-26T00:00:28.140Z,5.05
2019-03-26T00:01:28.130Z,5.01
2019-03-26T00:02:28.140Z,5.09
2019-03-26T00:03:28.109Z,5.14
2019-03-26T00:04:28.091Z,5.06
2019-03-26T00:05:28.081Z,5.05
2019-03-26T00:06:28.080Z,5.01
2019-03-26T00:07:28.098Z,5.05
2019-03-26T00:08:28.057Z,5.01
2019-03-26T00:09:28.045Z,4.96
2019-03-26T00:10:28.035Z,4.96
2019-03-26T00:11:28.016Z,4.91
2019-03-26T00:12:28.041Z,4.90
2019-03-26T00:13:28.009Z,4.88
2019-03-26T00:14:27.998Z,4.72
2019-03-26T00:15:27.977Z,4.84
2019-03-26T00:16:27.965Z,4.77
2019-03-26T00:17:27.959Z,4.75
2019-03-26T00:18:27.965Z,4.71
2019-03-26T00:19:27.945Z,4.71
2019-03-26T00:20:27.930Z,4.71
2019-03-26T00:21:27.924Z,4.64
2019-03-26T00:22:27.911Z,4.68
2019-03-26T00:23:27.924Z,4.61
2019-03-26T00:24:27.883Z,4.61
2019-03-26T00:25:27.871Z,4.57
2019-03-26T00:26:27.867Z,4.51
2019-03-26T00:27:27.862Z,4.54
2019-03-26T00:28:27.847Z,4.54
2019-03-26T00:29:27.851Z,4.51
2019-03-26T00:30:27.822Z,4.50
2019-03-26T00:31:27.815Z,4.53
2019-03-26T00:32:27.805Z,4.57
2019-03-26T00:33:36.166Z,4.50
2019-03-26T00:34:28.809Z,4.53
2019-03-26T00:35:27.769Z,4.50
2019-03-26T00:36:27.786Z,4.50
2019-03-26T00:37:27.747Z,4.54
2019-03-26T00:38:27.794Z,4.50
2019-03-26T00:39:27.737Z,4.47
2019-03-26T00:40:27.730Z,4.49
2019-03-26T00:41:27.731Z,4.39
2019-03-26T00:42:27.720Z,4.35
2019-03-26T00:43:27.686Z,4.38
2019-03-26T00:44:27.675Z,4.42
2019-03-26T00:45:27.678Z,4.36
2019-03-26T00:46:27.682Z,4.34
2019-03-26T00:47:27.663Z,4.32
2019-03-26T00:48:27.639Z,4.36
2019-03-26T00:49:27.622Z,4.28
2019-03-26T00:50:27.614Z,4.21
2019-03-26T00:51:27.607Z,4.26
2019-03-26T00:52:27.618Z,4.25
2019-03-26T00:53:27.586Z,4.28
2019-03-26T00:54:27.575Z,4.28
2019-03-26T00:55:27.563Z,4.17
2019-03-26T00:56:27.554Z,4.17
2019-03-26T00:57:27.564Z,4.24
2019-03-26T00:58:27.528Z,4.14
2019-03-26T00:59:27.524Z,4.13
2019-03-26T01:00:27.514Z,4.20
2019-03-26T01:01:27.505Z,4.11
2019-03-26T01:02:27.526Z,4.07
2019-03-26T01:03:27.485Z,4.02
2019-03-26T01:04:32.921Z,4.10
2019-03-26T01:05:28.462Z,4.04
2019-03-26T01:06:27.472Z,3.95
2019-03-26T01:07:27.455Z,3.95
2019-03-26T01:08:27.436Z,3.89
2019-03-26T01:09:27.416Z,3.86
2019-03-26T01:10:27.409Z,3.86
2019-03-26T01:11:27.420Z,3.89
2019-03-26T01:12:27.391Z,3.78
2019-03-26T01:13:27.379Z,3.75
2019-03-26T01:14:27.377Z,3.82
2019-03-26T01:15:27.360Z,3.75
2019-03-26T01:16:27.372Z,3.78
2019-03-26T01:17:27.337Z,3.82
2019-03-26T01:18:27.330Z,3.81
2019-03-26T01:19:27.344Z,3.77
2019-03-26T01:20:27.311Z,3.71
2019-03-26T01:21:27.290Z,3.70
2019-03-26T01:22:27.284Z,3.75
2019-03-26T01:23:27.279Z,3.68
2019-03-26T01:24:27.266Z,3.68
2019-03-26T01:25:27.278Z,3.62
2019-03-26T01:26:27.251Z,3.60
2019-03-26T01:27:27.231Z,3.56
2019-03-26T01:28:27.223Z,3.64
2019-03-26T01:29:27.210Z,3.59
2019-03-26T01:30:27.237Z,3.57
2019-03-26T01:31:27.193Z,3.54
2019-03-26T01:32:27.185Z,3.56
2019-03-26T01:33:27.170Z,3.52
2019-03-26T01:34:27.158Z,3.52
2019-03-26T01:35:27.151Z,3.46
2019-03-26T01:36:27.169Z,3.46
2019-03-26T01:37:27.134Z,3.46
2019-03-26T01:38:27.125Z,3.46
2019-03-26T01:39:27.114Z,3.41
2019-03-26T01:40:27.097Z,3.42
2019-03-26T01:41:27.104Z,3.39
2019-03-26T01:42:27.074Z,3.39
2019-03-26T01:43:27.070Z,3.44
2019-03-26T01:44:27.064Z,3.35
2019-03-26T01:45:27.057Z,3.35
2019-03-26T01:46:27.061Z,3.34
2019-03-26T01:47:27.026Z,3.41
2019-03-26T01:48:27.013Z,3.41
2019-03-26T01:49:27.031Z,3.39
2019-03-26T01:50:27.005Z,3.37
2019-03-26T01:51:27.010Z,3.41
2019-03-26T01:52:26.970Z,3.35
2019-03-26T01:53:26.961Z,3.30
2019-03-26T01:54:26.951Z,3.39
2019-03-26T01:55:26.966Z,3.23
2019-03-26T01:56:26.940Z,3.22
2019-03-26T01:57:26.948Z,3.17
2019-03-26T01:58:26.914Z,3.19
2019-03-26T01:59:26.901Z,3.25
2019-03-26T02:00:26.910Z,3.26
2019-03-26T02:01:26.886Z,3.30
2019-03-26T02:02:26.898Z,3.23
2019-03-26T02:03:26.869Z,3.19
2019-03-26T02:04:26.852Z,3.26
2019-03-26T02:05:26.844Z,3.12
2019-03-26T02:06:26.827Z,3.17
2019-03-26T02:07:26.826Z,3.22
2019-03-26T02:08:26.829Z,3.26
2019-03-26T02:09:26.802Z,3.22
2019-03-26T02:10:26.794Z,3.26
2019-03-26T02:11:26.774Z,3.25
2019-03-26T02:12:26.779Z,3.25
2019-03-26T02:13:26.773Z,3.26
2019-03-26T02:14:26.744Z,3.22
2019-03-26T02:15:26.746Z,3.17
2019-03-26T02:16:26.729Z,3.22
2019-03-26T02:17:26.719Z,3.19
2019-03-26T02:18:26.747Z,3.19
2019-03-26T02:19:26.695Z,3.15
2019-03-26T02:20:26.681Z,3.13
2019-03-26T02:21:26.684Z,3.08
2019-03-26T02:22:26.665Z,3.13
2019-03-26T02:23:26.652Z,3.17
2019-03-26T02:24:26.666Z,3.13
2019-03-26T02:25:26.638Z,3.16
2019-03-26T02:26:26.624Z,3.05
2019-03-26T02:27:26.615Z,3.04
2019-03-26T02:28:26.603Z,3.08
2019-03-26T02:29:26.613Z,3.07
2019-03-26T02:30:26.586Z,3.01
2019-03-26T02:31:26.575Z,3.05
2019-03-26T02:32:26.560Z,3.07
2019-03-26T02:33:26.574Z,3.02
2019-03-26T02:34:26.560Z,3.02
2019-03-26T02:35:26.533Z,2.98
2019-03-26T02:36:26.530Z,2.95
2019-03-26T02:37:26.508Z,2.92
2019-03-26T02:38:26.496Z,2.80
2019-03-26T02:39:26.517Z,2.87
2019-03-26T02:40:26.490Z,2.90
2019-03-26T02:41:26.471Z,2.90
2019-03-26T02:42:26.467Z,2.83
2019-03-26T02:43:26.484Z,2.90
2019-03-26T02:44:26.437Z,2.97
2019-03-26T02:45:26.423Z,2.79
2019-03-26T02:46:26.414Z,2.83
2019-03-26T02:47:26.416Z,2.95
2019-03-26T02:48:26.430Z,2.95
2019-03-26T02:49:26.395Z,2.98
2019-03-26T02:50:26.386Z,2.95
2019-03-26T02:51:26.361Z,2.94
2019-03-26T02:52:26.352Z,2.84
2019-03-26T02:53:26.352Z,2.92
2019-03-26T02:54:26.357Z,2.86
2019-03-26T02:55:26.325Z,2.77
2019-03-26T02:56:26.309Z,2.86
2019-03-26T02:57:26.301Z,2.81
2019-03-26T02:58:26.293Z,2.92
2019-03-26T02:59:26.313Z,2.79
2019-03-26T03:00:26.292Z,2.77
2019-03-26T03:01:26.267Z,2.81
2019-03-26T03:02:26.256Z,2.80
2019-03-26T03:03:26.243Z,2.79
2019-03-26T03:04:26.227Z,2.81
2019-03-26T03:05:35.355Z,2.83
2019-03-26T03:06:27.205Z,2.76
2019-03-26T03:07:26.209Z,2.71
2019-03-26T03:08:26.193Z,2.74
2019-03-26T03:09:26.180Z,2.79
2019-03-26T03:10:26.195Z,2.77
2019-03-26T03:11:26.162Z,2.80
2019-03-26T03:12:26.155Z,2.74
2019-03-26T03:13:26.148Z,2.77
2019-03-26T03:14:26.207Z,2.79
2019-03-26T03:15:26.149Z,2.83
2019-03-26T03:16:26.105Z,2.79
2019-03-26T03:17:26.094Z,2.77
2019-03-26T03:18:26.081Z,2.68
2019-03-26T03:19:26.079Z,2.81
2019-03-26T03:20:26.068Z,2.68
2019-03-26T03:21:26.079Z,2.76
2019-03-26T03:22:26.906Z,2.79
2019-03-26T03:23:26.032Z,2.76
2019-03-26T03:24:26.030Z,2.66
2019-03-26T03:25:26.022Z,2.80
2019-03-26T03:26:26.027Z,2.79
2019-03-26T03:27:25.993Z,2.79
2019-03-26T03:28:25.982Z,2.79
2019-03-26T03:29:25.984Z,2.69
2019-03-26T03:30:25.967Z,2.76
2019-03-26T03:31:25.981Z,2.68
2019-03-26T03:32:25.946Z,2.68
2019-03-26T03:33:25.937Z,2.81
2019-03-26T03:34:26.093Z,2.74
2019-03-26T03:35:25.906Z,2.76
2019-03-26T03:36:25.919Z,2.79
2019-03-26T03:37:25.889Z,2.77
2019-03-26T03:38:25.880Z,2.79
2019-03-26T03:39:25.895Z,2.79
2019-03-26T03:40:25.873Z,2.81
2019-03-26T03:41:25.848Z,2.77
2019-03-26T03:42:25.860Z,2.81
2019-03-26T03:43:25.834Z,2.81
2019-03-26T03:44:25.876Z,2.83
2019-03-26T03:45:25.810Z,2.74
2019-03-26T03:46:25.802Z,2.79
2019-03-26T03:47:25.787Z,2.86
2019-03-26T03:48:25.784Z,2.80
2019-03-26T03:49:25.817Z,2.74
2019-03-26T03:50:25.775Z,2.81
2019-03-26T03:51:25.749Z,2.76
2019-03-26T03:52:25.769Z,2.76
2019-03-26T03:53:25.732Z,2.76
2019-03-26T03:54:25.725Z,2.80
2019-03-26T03:55:25.703Z,2.79
2019-03-26T03:56:25.697Z,2.79
2019-03-26T03:57:25.687Z,2.81
2019-03-26T03:58:25.710Z,2.76
2019-03-26T03:59:25.661Z,2.81
2019-03-26T04:00:25.653Z,2.79
2019-03-26T04:01:25.643Z,2.83
2019-03-26T04:02:25.631Z,2.81
2019-03-26T04:03:25.646Z,2.86
2019-03-26T04:04:25.619Z,2.86
2019-03-26T04:05:25.608Z,2.90
2019-03-26T04:06:25.596Z,2.80
2019-03-26T04:07:25.580Z,2.90
2019-03-26T04:08:25.586Z,2.79
2019-03-26T04:09:25.560Z,2.79
2019-03-26T04:10:25.554Z,2.84
2019-03-26T04:11:25.567Z,2.76
2019-03-26T04:12:25.554Z,2.77
2019-03-26T04:13:25.522Z,2.79
2019-03-26T04:14:25.527Z,2.74
2019-03-26T04:15:25.511Z,2.74
2019-03-26T04:16:25.494Z,2.84
2019-03-26T04:17:25.488Z,2.77
2019-03-26T04:18:25.478Z,2.79
2019-03-26T04:19:25.481Z,2.80
2019-03-26T04:20:25.465Z,2.77
2019-03-26T04:21:25.453Z,2.73
2019-03-26T04:22:25.432Z,2.81
2019-03-26T04:23:25.426Z,2.79
2019-03-26T04:24:25.408Z,2.79
2019-03-26T04:25:25.428Z,2.76
2019-03-26T04:26:25.413Z,2.80
2019-03-26T04:27:25.374Z,2.84
2019-03-26T04:28:25.375Z,2.71
2019-03-26T04:29:25.365Z,2.81
2019-03-26T04:30:25.355Z,2.80
2019-03-26T04:31:25.371Z,2.77
2019-03-26T04:32:25.321Z,2.79
2019-03-26T04:33:25.312Z,2.79
2019-03-26T04:34:25.388Z,2.81
2019-03-26T04:35:25.301Z,2.77
2019-03-26T04:36:26.658Z,2.77
2019-03-26T04:37:25.275Z,2.90
2019-03-26T04:38:25.266Z,2.92
2019-03-26T04:39:25.250Z,2.89
2019-03-26T04:40:25.246Z,2.89
2019-03-26T04:41:25.256Z,2.94
2019-03-26T04:42:25.225Z,2.92
2019-03-26T04:43:25.224Z,2.89
2019-03-26T04:44:25.209Z,2.83
2019-03-26T04:45:25.194Z,2.84
2019-03-26T04:46:25.225Z,2.95
2019-03-26T04:47:25.199Z,3.01
2019-03-26T04:48:25.176Z,3.05
2019-03-26T04:49:25.163Z,3.10
2019-03-26T04:50:25.150Z,3.08
2019-03-26T04:51:25.126Z,3.02
2019-03-26T04:52:25.143Z,3.10
2019-03-26T04:53:25.106Z,3.10
2019-03-26T04:54:25.094Z,3.10
2019-03-26T04:55:25.091Z,3.19
2019-03-26T04:56:25.081Z,3.22
2019-03-26T04:57:25.070Z,3.22
2019-03-26T04:58:25.148Z,3.28
2019-03-26T04:59:25.044Z,3.23
2019-03-26T05:00:25.049Z,3.30
2019-03-26T05:01:25.033Z,3.39
2019-03-26T05:02:25.035Z,3.39
2019-03-26T05:03:25.004Z,3.30
2019-03-26T05:04:25.011Z,3.42
2019-03-26T05:05:24.984Z,3.45
2019-03-26T05:06:37.225Z,3.49
2019-03-26T05:07:25.966Z,3.54
2019-03-26T05:08:24.977Z,3.56
2019-03-26T05:09:24.947Z,3.53
2019-03-26T05:10:24.947Z,3.56
2019-03-26T05:11:24.920Z,3.54
2019-03-26T05:12:24.907Z,3.68
2019-03-26T05:13:24.955Z,3.68
2019-03-26T05:14:24.891Z,3.78
2019-03-26T05:15:24.891Z,3.78
2019-03-26T05:16:24.888Z,3.80
2019-03-26T05:17:24.862Z,3.71
2019-03-26T05:18:24.846Z,3.70
2019-03-26T05:19:24.861Z,3.80
2019-03-26T05:20:24.832Z,3.81
2019-03-26T05:21:24.821Z,3.78
2019-03-26T05:22:24.811Z,3.74
2019-03-26T05:23:24.794Z,3.74
2019-03-26T05:24:24.809Z,3.64
2019-03-26T05:25:24.773Z,3.52
2019-03-26T05:26:24.766Z,3.59
2019-03-26T05:27:24.761Z,3.62
2019-03-26T05:28:24.773Z,3.60
2019-03-26T05:29:24.757Z,3.59
2019-03-26T05:30:24.750Z,3.59
2019-03-26T05:31:24.711Z,3.49
2019-03-26T05:32:24.702Z,3.52
2019-03-26T05:33:24.705Z,3.53
2019-03-26T05:34:24.713Z,3.50
2019-03-26T05:35:24.667Z,3.56
2019-03-26T05:36:24.679Z,3.52
2019-03-26T05:37:24.663Z,3.54
2019-03-26T05:38:24.639Z,3.49
2019-03-26T05:39:24.645Z,3.44
2019-03-26T05:40:24.624Z,3.45
2019-03-26T05:41:24.659Z,3.45
2019-03-26T05:42:24.604Z,3.50
2019-03-26T05:43:24.589Z,3.46
2019-03-26T05:44:24.578Z,3.50
2019-03-26T05:45:24.572Z,3.49
2019-03-26T05:46:24.553Z,3.45
2019-03-26T05:47:24.569Z,3.49
2019-03-26T05:48:24.544Z,3.49
2019-03-26T05:49:24.525Z,3.53
2019-03-26T05:50:24.522Z,3.60
2019-03-26T05:51:24.531Z,3.52
2019-03-26T05:52:24.500Z,3.52
2019-03-26T05:53:24.491Z,3.63
2019-03-26T05:54:24.968Z,3.67
2019-03-26T05:55:24.466Z,3.54
2019-03-26T05:56:24.452Z,3.64
2019-03-26T05:57:24.441Z,3.59
2019-03-26T05:58:24.437Z,3.54
2019-03-26T05:59:24.429Z,3.57
2019-03-26T06:00:24.438Z,3.62
2019-03-26T06:01:24.408Z,3.57
2019-03-26T06:02:24.414Z,3.60
2019-03-26T06:03:24.381Z,3.70
2019-03-26T06:04:24.369Z,3.74
2019-03-26T06:05:24.377Z,3.75
2019-03-26T06:06:24.359Z,3.74
2019-03-26T06:07:24.371Z,3.77
2019-03-26T06:08:24.332Z,3.81
2019-03-26T06:09:24.324Z,3.84
2019-03-26T06:10:24.306Z,3.89
2019-03-26T06:11:24.317Z,3.81
2019-03-26T06:12:24.290Z,3.90
2019-03-26T06:13:24.302Z,3.89
2019-03-26T06:14:24.271Z,3.92
2019-03-26T06:15:24.259Z,4.04
2019-03-26T06:16:37.649Z,4.00
2019-03-26T06:17:25.237Z,4.07
2019-03-26T06:18:24.255Z,4.11
2019-03-26T06:19:24.221Z,4.10
2019-03-26T06:20:24.211Z,4.24
2019-03-26T06:21:24.204Z,4.25
2019-03-26T06:22:24.182Z,4.26
2019-03-26T06:23:24.183Z,4.26
2019-03-26T06:24:24.187Z,4.16
2019-03-26T06:25:24.162Z,4.28
2019-03-26T06:26:24.158Z,4.26
2019-03-26T06:27:24.132Z,4.29
2019-03-26T06:28:24.123Z,4.43
2019-03-26T06:29:24.133Z,4.35
2019-03-26T06:30:24.096Z,4.35
2019-03-26T06:31:24.126Z,4.49
2019-03-26T06:32:24.081Z,4.46
2019-03-26T06:33:24.079Z,4.50
2019-03-26T06:34:24.096Z,4.61
2019-03-26T06:35:24.057Z,4.65
2019-03-26T06:36:24.036Z,4.69
2019-03-26T06:37:24.030Z,4.90
2019-03-26T06:38:24.020Z,5.09
2019-03-26T06:39:24.010Z,5.08
2019-03-26T06:40:24.045Z,5.08
2019-03-26T06:41:23.984Z,5.08
2019-03-26T06:42:23.972Z,5.24
2019-03-26T06:43:23.980Z,5.67
2019-03-26T06:44:23.978Z,5.62
2019-03-26T06:45:23.951Z,5.45
2019-03-26T06:46:23.937Z,5.38
2019-03-26T06:47:23.919Z,5.24
2019-03-26T06:48:24.032Z,5.11
2019-03-26T06:49:23.948Z,5.11
2019-03-26T06:50:23.887Z,5.08
2019-03-26T06:51:23.885Z,5.06
2019-03-26T06:52:23.874Z,4.99
2019-03-26T06:53:23.868Z,5.08
2019-03-26T06:54:23.882Z,5.08
2019-03-26T06:55:23.852Z,5.01
2019-03-26T06:56:23.836Z,5.05
2019-03-26T06:57:35.124Z,5.14
2019-03-26T06:58:24.811Z,5.12
2019-03-26T06:59:23.793Z,5.19
2019-03-26T07:00:23.813Z,5.20
2019-03-26T07:01:23.775Z,5.20
2019-03-26T07:02:23.766Z,5.23
2019-03-26T07:03:23.764Z,5.22
2019-03-26T07:04:23.751Z,5.24
2019-03-26T07:05:23.739Z,5.20
2019-03-26T07:06:23.748Z,5.20
2019-03-26T07:07:31.564Z,5.27
2019-03-26T07:08:24.719Z,5.24
2019-03-26T07:09:23.699Z,5.26
2019-03-26T07:10:23.707Z,5.35
2019-03-26T07:11:23.694Z,5.49
2019-03-26T07:12:23.662Z,5.45
2019-03-26T07:13:23.656Z,5.51
2019-03-26T07:14:23.660Z,5.51
2019-03-26T07:15:23.637Z,5.59
2019-03-26T07:16:24.503Z,5.56
2019-03-26T07:17:23.617Z,5.48
2019-03-26T07:18:23.603Z,5.42
2019-03-26T07:19:23.598Z,5.47
2019-03-26T07:20:23.577Z,5.52
2019-03-26T07:21:23.566Z,5.49
2019-03-26T07:22:23.578Z,5.55
2019-03-26T07:23:23.551Z,5.47
2019-03-26T07:24:23.539Z,5.40
2019-03-26T07:25:23.529Z,5.48
2019-03-26T07:26:23.540Z,5.49
2019-03-26T07:27:23.529Z,5.56
2019-03-26T07:28:23.495Z,5.56
2019-03-26T07:29:23.484Z,5.52
2019-03-26T07:30:23.486Z,5.60
2019-03-26T07:31:23.463Z,5.63
2019-03-26T07:32:23.480Z,5.58
2019-03-26T07:33:23.442Z,5.48
2019-03-26T07:34:23.440Z,5.47
2019-03-26T07:35:23.431Z,5.62
2019-03-26T07:36:23.420Z,5.70
2019-03-26T07:37:23.413Z,5.78
2019-03-26T07:38:23.421Z,6.02
2019-03-26T07:39:23.380Z,7.84
2019-03-26T07:40:23.375Z,9.42
2019-03-26T07:41:23.382Z,10.14
2019-03-26T07:42:23.382Z,9.41
2019-03-26T07:43:23.353Z,8.40
2019-03-26T07:44:23.338Z,9.04
2019-03-26T07:45:23.323Z,9.32
2019-03-26T07:46:23.311Z,9.30
2019-03-26T07:47:23.335Z,10.14
2019-03-26T07:48:23.293Z,11.45
2019-03-26T07:49:23.280Z,12.16
2019-03-26T07:50:23.274Z,12.00
2019-03-26T07:51:23.275Z,10.72
2019-03-26T07:52:23.290Z,10.90
2019-03-26T07:53:23.944Z,11.36
2019-03-26T07:54:23.961Z,11.62
2019-03-26T07:55:23.220Z,10.52
2019-03-26T07:56:23.220Z,10.32
2019-03-26T07:57:23.193Z,9.77
2019-03-26T07:58:23.180Z,10.78
2019-03-26T07:59:23.209Z,10.83
2019-03-26T08:00:23.200Z,10.02
2019-03-26T08:01:23.165Z,9.86
2019-03-26T08:02:23.153Z,10.29
2019-03-26T08:03:23.132Z,9.53
2019-03-26T08:04:23.131Z,8.85
2019-03-26T08:05:29.616Z,8.40
2019-03-26T08:06:24.115Z,8.20
2019-03-26T08:07:23.094Z,8.49
2019-03-26T08:08:23.076Z,9.85
2019-03-26T08:09:23.192Z,9.40
2019-03-26T08:10:23.060Z,9.92
2019-03-26T08:11:23.064Z,10.22
2019-03-26T08:12:23.032Z,10.26
2019-03-26T08:13:23.115Z,9.75
2019-03-26T08:14:23.016Z,10.02
2019-03-26T08:15:23.040Z,9.89
2019-03-26T08:16:23.016Z,9.70
2019-03-26T08:17:23.006Z,10.62
2019-03-26T08:18:22.972Z,10.17
2019-03-26T08:19:22.965Z,9.99
2019-03-26T08:20:22.949Z,9.73
2019-03-26T08:21:22.942Z,9.99
2019-03-26T08:22:22.924Z,10.32
2019-03-26T08:23:22.942Z,10.47
2019-03-26T08:24:22.902Z,10.28
2019-03-26T08:25:22.893Z,10.29
2019-03-26T08:26:22.917Z,10.42
2019-03-26T08:27:22.874Z,10.65
2019-03-26T08:28:22.864Z,11.63
2019-03-26T08:29:22.877Z,11.05
2019-03-26T08:30:22.864Z,10.86
2019-03-26T08:31:22.839Z,10.76
2019-03-26T08:32:22.820Z,10.38
2019-03-26T08:33:23.513Z,10.78
2019-03-26T08:34:22.829Z,11.67
2019-03-26T08:35:22.794Z,11.46
2019-03-26T08:36:22.775Z,10.87
2019-03-26T08:37:22.759Z,11.19
2019-03-26T08:38:22.753Z,11.77
2019-03-26T08:39:22.757Z,11.05
2019-03-26T08:40:23.552Z,10.51
2019-03-26T08:41:22.744Z,9.86
2019-03-26T08:42:22.717Z,9.55
2019-03-26T08:43:22.698Z,9.26
2019-03-26T08:44:22.695Z,8.93
2019-03-26T08:45:22.688Z,8.55
2019-03-26T08:46:22.688Z,8.29
2019-03-26T08:47:22.659Z,8.12
2019-03-26T08:48:22.655Z,8.17
2019-03-26T08:49:22.634Z,8.14
2019-03-26T08:50:22.628Z,8.10
2019-03-26T08:51:22.658Z,8.12
2019-03-26T08:52:22.610Z,8.09
2019-03-26T08:53:22.611Z,8.03
2019-03-26T08:54:22.593Z,8.04
2019-03-26T08:55:22.570Z,7.95
2019-03-26T08:56:22.581Z,7.95
2019-03-26T08:57:22.574Z,7.95
2019-03-26T08:58:22.549Z,7.89
2019-03-26T08:59:22.533Z,7.92
2019-03-26T09:00:22.529Z,7.94
2019-03-26T09:01:22.512Z,7.92
2019-03-26T09:02:22.538Z,8.10
2019-03-26T09:03:22.501Z,8.25
2019-03-26T09:04:22.487Z,8.31
2019-03-26T09:05:22.476Z,8.29
2019-03-26T09:06:22.462Z,8.37
2019-03-26T09:07:22.449Z,8.29
2019-03-26T09:08:25.591Z,8.34
2019-03-26T09:09:22.423Z,8.34
2019-03-26T09:10:22.416Z,8.43
2019-03-26T09:11:22.414Z,8.54
2019-03-26T09:12:22.396Z,8.52
2019-03-26T09:13:22.387Z,8.63
2019-03-26T09:14:22.409Z,8.78
2019-03-26T09:15:22.363Z,8.98
2019-03-26T09:16:22.354Z,9.10
2019-03-26T09:17:22.349Z,9.03
2019-03-26T09:18:22.331Z,8.88
2019-03-26T09:19:22.340Z,8.61
2019-03-26T09:20:22.307Z,8.45
2019-03-26T09:21:22.316Z,8.13
2019-03-26T09:22:22.284Z,8.09
2019-03-26T09:23:22.282Z,7.99
2019-03-26T09:24:22.302Z,7.86
2019-03-26T09:25:22.284Z,7.76
2019-03-26T09:26:22.256Z,7.84
2019-03-26T09:27:22.235Z,7.79
2019-03-26T09:28:22.222Z,7.95
2019-03-26T09:29:22.218Z,7.84
2019-03-26T09:30:22.305Z,7.79
2019-03-26T09:31:22.200Z,7.82
2019-03-26T09:32:22.190Z,7.81
2019-03-26T09:33:22.173Z,7.74
2019-03-26T09:34:22.155Z,7.89
2019-03-26T09:35:22.150Z,8.00
2019-03-26T09:36:22.208Z,8.29
2019-03-26T09:37:22.131Z,8.65
2019-03-26T09:38:22.126Z,8.61
2019-03-26T09:39:22.105Z,8.79
2019-03-26T09:40:22.105Z,8.86
2019-03-26T09:41:22.109Z,8.80
2019-03-26T09:42:22.072Z,8.80
2019-03-26T09:43:22.066Z,8.67
2019-03-26T09:44:22.054Z,8.71
2019-03-26T09:45:22.046Z,8.61
2019-03-26T09:46:22.038Z,8.52
2019-03-26T09:47:22.052Z,8.47
2019-03-26T09:48:22.019Z,8.46
2019-03-26T09:49:22.005Z,8.47
2019-03-26T09:50:21.998Z,8.54
2019-03-26T09:51:21.977Z,8.50
2019-03-26T09:52:21.967Z,8.52
2019-03-26T09:53:21.986Z,8.39
2019-03-26T09:54:22.019Z,8.40
2019-03-26T09:55:21.941Z,8.28
2019-03-26T09:56:28.495Z,8.18
2019-03-26T09:57:22.918Z,8.13
2019-03-26T09:58:21.909Z,8.14
2019-03-26T09:59:21.915Z,8.25
2019-03-26T10:00:21.881Z,8.32
2019-03-26T10:01:21.871Z,8.24
2019-03-26T10:02:21.864Z,8.07
2019-03-26T10:03:21.855Z,7.95
2019-03-26T10:04:21.871Z,7.94
2019-03-26T10:05:21.829Z,7.94
2019-03-26T10:06:23.545Z,7.70
2019-03-26T10:07:22.137Z,7.58
2019-03-26T10:08:21.814Z,7.44
2019-03-26T10:09:21.798Z,7.41
2019-03-26T10:10:21.812Z,7.54
2019-03-26T10:11:21.765Z,7.63
2019-03-26T10:12:21.758Z,8.04
2019-03-26T10:13:21.749Z,8.78
2019-03-26T10:14:21.734Z,9.67
2019-03-26T10:15:21.738Z,9.67
2019-03-26T10:16:21.743Z,9.53
2019-03-26T10:17:21.722Z,9.59
2019-03-26T10:18:21.726Z,9.53
2019-03-26T10:19:21.701Z,9.63
2019-03-26T10:20:21.667Z,9.55
2019-03-26T10:21:21.666Z,9.44
2019-03-26T10:22:21.652Z,9.41
2019-03-26T10:23:21.641Z,9.31
2019-03-26T10:24:21.714Z,9.04
2019-03-26T10:25:21.614Z,8.80
2019-03-26T10:26:21.605Z,8.61
2019-03-26T10:27:21.619Z,8.50
2019-03-26T10:28:21.594Z,8.37
2019-03-26T10:29:30.122Z,8.37
2019-03-26T10:30:24.872Z,8.32
2019-03-26T10:31:21.551Z,8.46
2019-03-26T10:32:21.544Z,8.70
2019-03-26T10:33:21.531Z,8.75
2019-03-26T10:34:21.538Z,8.80
2019-03-26T10:35:21.522Z,8.75
2019-03-26T10:36:21.503Z,8.65
2019-03-26T10:37:21.487Z,8.57
2019-03-26T10:38:21.476Z,8.60
2019-03-26T10:39:21.490Z,8.65
2019-03-26T10:40:21.466Z,8.60
2019-03-26T10:41:21.497Z,8.67
2019-03-26T10:42:21.442Z,8.68
2019-03-26T10:43:21.427Z,8.61
2019-03-26T10:44:21.415Z,8.46
2019-03-26T10:45:21.404Z,8.25
2019-03-26T10:46:21.404Z,8.25
2019-03-26T10:47:21.419Z,8.40
2019-03-26T10:48:21.380Z,8.60
2019-03-26T10:49:21.365Z,8.50
2019-03-26T10:50:21.387Z,8.71
2019-03-26T10:51:21.342Z,8.97
2019-03-26T10:52:21.387Z,9.89
2019-03-26T10:53:21.334Z,9.37
2019-03-26T10:54:21.312Z,8.94
2019-03-26T10:55:21.297Z,8.52
2019-03-26T10:56:21.307Z,8.25
2019-03-26T10:57:21.957Z,7.92
2019-03-26T10:58:21.271Z,7.89
2019-03-26T10:59:21.281Z,7.94
2019-03-26T11:00:21.260Z,7.99
2019-03-26T11:01:21.261Z,8.20
2019-03-26T11:02:21.252Z,8.29
2019-03-26T11:03:21.219Z,8.50
2019-03-26T11:04:21.206Z,8.73
2019-03-26T11:05:21.195Z,9.00
2019-03-26T11:06:21.228Z,8.97
2019-03-26T11:07:21.181Z,8.91
2019-03-26T11:08:21.169Z,8.94
2019-03-26T11:09:26.858Z,9.10
2019-03-26T11:10:22.137Z,9.06
2019-03-26T11:11:21.135Z,8.96
2019-03-26T11:12:21.157Z,9.04
2019-03-26T11:13:21.114Z,9.03
2019-03-26T11:14:21.100Z,9.32
2019-03-26T11:15:21.087Z,9.48
2019-03-26T11:16:21.079Z,9.48
2019-03-26T11:17:21.060Z,9.44
2019-03-26T11:18:21.071Z,9.20
2019-03-26T11:19:21.047Z,9.24
2019-03-26T11:20:21.037Z,9.23
2019-03-26T11:21:21.034Z,9.27
2019-03-26T11:22:21.037Z,9.19
2019-03-26T11:23:21.008Z,9.13
2019-03-26T11:24:21.019Z,9.08
2019-03-26T11:25:20.989Z,8.91
2019-03-26T11:26:20.973Z,8.94
2019-03-26T11:27:20.959Z,8.83
2019-03-26T11:28:20.945Z,8.93
2019-03-26T11:29:20.935Z,8.91
2019-03-26T11:30:20.958Z,8.93
2019-03-26T11:31:20.928Z,9.08
2019-03-26T11:32:20.916Z,8.96
2019-03-26T11:33:20.903Z,9.04
2019-03-26T11:34:20.886Z,9.06
2019-03-26T11:35:20.871Z,8.91
2019-03-26T11:36:20.881Z,8.79
2019-03-26T11:37:20.855Z,8.79
2019-03-26T11:38:20.942Z,8.63
2019-03-26T11:39:32.205Z,8.50
2019-03-26T11:40:21.823Z,8.50
2019-03-26T11:41:20.836Z,8.52
2019-03-26T11:42:20.801Z,8.39
2019-03-26T11:43:20.800Z,8.31
2019-03-26T11:44:20.783Z,8.36
2019-03-26T11:45:20.774Z,8.28
2019-03-26T11:46:20.771Z,8.20
2019-03-26T11:47:20.773Z,8.28
2019-03-26T11:48:20.735Z,8.20
2019-03-26T11:49:20.732Z,8.18
2019-03-26T11:50:20.714Z,8.18
2019-03-26T11:51:20.715Z,8.18
2019-03-26T11:52:20.700Z,8.20
2019-03-26T11:53:20.716Z,8.21
2019-03-26T11:54:20.683Z,8.18
2019-03-26T11:55:21.938Z,8.24
2019-03-26T11:56:20.647Z,8.22
2019-03-26T11:57:20.651Z,8.18
2019-03-26T11:58:30.295Z,8.36
2019-03-26T11:59:22.046Z,8.24
2019-03-26T12:00:20.609Z,8.18
2019-03-26T12:01:20.602Z,8.10
2019-03-26T12:02:20.646Z,8.22
2019-03-26T12:03:20.582Z,8.21
2019-03-26T12:04:20.570Z,8.12
2019-03-26T12:05:21.061Z,8.12
2019-03-26T12:06:20.564Z,8.18
2019-03-26T12:07:20.531Z,8.21
2019-03-26T12:08:20.526Z,8.10
2019-03-26T12:09:20.516Z,8.10
2019-03-26T12:10:20.501Z,8.12
2019-03-26T12:11:20.546Z,7.96
2019-03-26T12:12:20.487Z,8.00
2019-03-26T12:13:20.469Z,7.96
2019-03-26T12:14:20.460Z,7.88
2019-03-26T12:15:20.452Z,7.89
2019-03-26T12:16:20.478Z,7.92
2019-03-26T12:17:20.433Z,7.88
2019-03-26T12:18:20.427Z,7.79
2019-03-26T12:19:20.409Z,7.73
2019-03-26T12:20:20.395Z,7.70
2019-03-26T12:21:20.389Z,7.70
2019-03-26T12:22:20.407Z,7.76
2019-03-26T12:23:20.370Z,7.70
2019-03-26T12:24:20.371Z,7.57
2019-03-26T12:25:20.346Z,7.58
2019-03-26T12:26:20.339Z,7.47
2019-03-26T12:27:20.321Z,7.33
2019-03-26T12:28:20.347Z,7.36
2019-03-26T12:29:20.306Z,7.37
2019-03-26T12:30:20.297Z,7.37
2019-03-26T12:31:20.286Z,7.32
2019-03-26T12:32:20.281Z,7.33
2019-03-26T12:33:20.260Z,7.47
2019-03-26T12:34:20.296Z,7.41
2019-03-26T12:35:20.241Z,7.33
2019-03-26T12:36:20.233Z,7.30
2019-03-26T12:37:20.224Z,7.23
2019-03-26T12:38:20.216Z,7.32
2019-03-26T12:39:20.192Z,7.23
2019-03-26T12:40:20.226Z,7.15
2019-03-26T12:41:20.178Z,7.33
2019-03-26T12:42:20.162Z,7.39
2019-03-26T12:43:20.172Z,7.91
2019-03-26T12:44:20.155Z,8.85
2019-03-26T12:45:20.147Z,9.86
2019-03-26T12:46:20.145Z,11.38
2019-03-26T12:47:20.117Z,12.22
2019-03-26T12:48:20.114Z,12.49
2019-03-26T12:49:20.094Z,12.84
2019-03-26T12:50:20.086Z,12.62
2019-03-26T12:51:20.104Z,12.31
2019-03-26T12:52:20.057Z,11.20
2019-03-26T12:53:20.049Z,10.86
2019-03-26T12:54:20.033Z,10.91
2019-03-26T12:55:20.035Z,11.20
2019-03-26T12:56:20.027Z,12.63
2019-03-26T12:57:20.042Z,11.62
2019-03-26T12:58:31.073Z,11.63
2019-03-26T12:59:20.986Z,11.01
2019-03-26T13:00:19.975Z,10.26
2019-03-26T13:01:19.975Z,9.92
2019-03-26T13:02:19.956Z,9.40
2019-03-26T13:03:19.966Z,9.19
2019-03-26T13:04:19.934Z,8.89
2019-03-26T13:05:23.063Z,8.64
2019-03-26T13:06:19.910Z,8.43
2019-03-26T13:07:19.907Z,8.24
2019-03-26T13:08:19.907Z,8.09
2019-03-26T13:09:19.912Z,8.12
2019-03-26T13:10:19.869Z,8.31
2019-03-26T13:11:19.856Z,8.31
2019-03-26T13:12:19.845Z,8.34
2019-03-26T13:13:19.836Z,8.45
2019-03-26T13:14:19.822Z,8.29
2019-03-26T13:15:19.850Z,8.25
2019-03-26T13:16:19.807Z,8.28